createdAt,value
2018-11-14T00:02:02.306Z,39.80
2018-11-14T00:04:29.165Z,39.70
2018-11-14T00:06:56.113Z,39.80
2018-11-14T00:09:22.966Z,39.80
2018-11-14T00:11:49.914Z,39.80
2018-11-14T00:14:16.749Z,39.70
2018-11-14T00:16:43.595Z,39.70
2018-11-14T00:19:10.436Z,39.70
2018-11-14T00:21:37.279Z,39.50
2018-11-14T00:24:04.113Z,39.50
2018-11-14T00:26:30.940Z,39.50
2018-11-14T00:28:57.883Z,39.40
2018-11-14T00:31:25.563Z,39.40
2018-11-14T00:33:52.539Z,39.50
2018-11-14T00:36:19.366Z,39.40
2018-11-14T00:38:46.191Z,39.50
2018-11-14T00:41:13.022Z,39.40
2018-11-14T00:43:39.861Z,39.40
2018-11-14T00:46:06.701Z,39.40
2018-11-14T00:48:33.568Z,39.30
2018-11-14T00:51:00.390Z,39.30
2018-11-14T00:53:27.228Z,39.30
2018-11-14T00:55:54.053Z,39.40
2018-11-14T00:58:20.881Z,39.30
2018-11-14T01:00:47.721Z,39.40
2018-11-14T01:03:14.544Z,39.30
2018-11-14T01:05:41.474Z,39.30
2018-11-14T01:08:08.319Z,39.30
2018-11-14T01:10:35.146Z,39.20
2018-11-14T01:13:02.084Z,39.10
2018-11-14T01:15:29.056Z,39.10
2018-11-14T01:17:55.878Z,39.10
2018-11-14T01:20:22.701Z,39.00
2018-11-14T01:22:49.598Z,39.10
2018-11-14T01:25:16.652Z,39.10
2018-11-14T01:27:43.462Z,39.10
2018-11-14T01:30:10.319Z,39.00
2018-11-14T01:32:37.120Z,39.00
2018-11-14T01:35:04.006Z,39.00
2018-11-14T01:37:30.814Z,39.00
2018-11-14T01:39:57.689Z,39.00
2018-11-14T01:42:24.527Z,39.00
2018-11-14T01:44:51.371Z,39.00
2018-11-14T01:47:18.210Z,39.00
2018-11-14T01:49:45.047Z,39.00
2018-11-14T01:52:11.874Z,39.00
2018-11-14T01:54:38.752Z,39.60
2018-11-14T01:57:05.567Z,38.90
2018-11-14T01:59:32.409Z,38.90
2018-11-14T02:01:59.230Z,38.90
2018-11-14T02:04:26.111Z,38.90
2018-11-14T02:06:52.944Z,38.90
2018-11-14T02:09:19.775Z,38.90
2018-11-14T02:11:46.616Z,38.80
2018-11-14T02:14:13.484Z,38.80
2018-11-14T02:16:40.302Z,38.80
2018-11-14T02:19:07.139Z,38.80
2018-11-14T02:21:34.013Z,38.80
2018-11-14T02:24:00.857Z,38.70
2018-11-14T02:26:27.670Z,38.70
2018-11-14T02:28:54.506Z,38.70
2018-11-14T02:31:21.350Z,38.70
2018-11-14T02:33:48.218Z,38.70
2018-11-14T02:36:15.042Z,38.70
2018-11-14T02:38:41.873Z,38.70
2018-11-14T02:41:08.703Z,38.70
2018-11-14T02:43:35.534Z,38.70
2018-11-14T02:46:02.391Z,38.60
2018-11-14T02:48:29.262Z,38.60
2018-11-14T02:50:56.080Z,38.50
2018-11-14T02:53:22.978Z,38.50
2018-11-14T02:55:49.806Z,38.40
2018-11-14T02:58:16.642Z,38.40
2018-11-14T03:00:43.469Z,38.50
2018-11-14T03:03:10.299Z,38.40
2018-11-14T03:05:37.187Z,38.40
2018-11-14T03:08:04.014Z,38.40
2018-11-14T03:10:30.845Z,38.40
2018-11-14T03:12:57.709Z,38.40
2018-11-14T03:15:24.553Z,38.30
2018-11-14T03:17:51.387Z,38.30
2018-11-14T03:20:18.211Z,38.30
2018-11-14T03:22:45.039Z,38.30
2018-11-14T03:25:11.962Z,38.30
2018-11-14T03:27:38.775Z,38.30
2018-11-14T03:30:05.619Z,38.20
2018-11-14T03:32:32.441Z,38.20
2018-11-14T03:34:59.294Z,38.20
2018-11-14T03:37:26.128Z,38.80
2018-11-14T03:39:52.959Z,38.10
2018-11-14T03:42:19.798Z,38.10
2018-11-14T03:44:46.664Z,38.20
2018-11-14T03:47:14.291Z,38.20
2018-11-14T03:49:41.069Z,38.10
2018-11-14T03:52:07.894Z,38.00
2018-11-14T03:54:34.854Z,38.10
2018-11-14T03:57:01.678Z,38.20
2018-11-14T03:59:28.506Z,38.10
2018-11-14T04:01:55.338Z,38.30
2018-11-14T04:04:22.235Z,38.20
2018-11-14T04:06:49.099Z,38.10
2018-11-14T04:09:15.953Z,38.20
2018-11-14T04:11:42.750Z,38.20
2018-11-14T04:14:09.599Z,38.20
2018-11-14T04:16:36.427Z,38.20
2018-11-14T04:19:03.251Z,38.30
2018-11-14T04:21:30.070Z,38.40
2018-11-14T04:23:56.972Z,38.50
2018-11-14T04:26:23.801Z,38.50
2018-11-14T04:28:50.660Z,38.50
2018-11-14T04:31:17.475Z,38.50
2018-11-14T04:33:44.293Z,38.40
2018-11-14T04:36:11.183Z,38.40
2018-11-14T04:38:38.014Z,38.40
2018-11-14T04:41:04.848Z,38.40
2018-11-14T04:43:31.697Z,38.40
2018-11-14T04:45:58.562Z,38.40
2018-11-14T04:48:25.391Z,38.30
2018-11-14T04:50:52.286Z,38.10
2018-11-14T04:53:19.065Z,38.10
2018-11-14T04:55:45.949Z,37.90
2018-11-14T04:58:12.790Z,38.00
2018-11-14T05:00:39.619Z,37.90
2018-11-14T05:03:06.450Z,37.90
2018-11-14T05:05:33.311Z,37.90
2018-11-14T05:08:00.139Z,38.10
2018-11-14T05:10:27.043Z,38.10
2018-11-14T05:12:53.911Z,38.10
2018-11-14T05:15:20.885Z,38.20
2018-11-14T05:17:47.706Z,38.00
2018-11-14T05:20:14.526Z,37.90
2018-11-14T05:22:41.352Z,38.00
2018-11-14T05:25:08.245Z,37.90
2018-11-14T05:27:35.087Z,37.90
2018-11-14T05:30:01.929Z,37.80
2018-11-14T05:32:28.762Z,37.70
2018-11-14T05:34:55.614Z,37.70
2018-11-14T05:37:22.445Z,37.70
2018-11-14T05:39:49.370Z,37.70
2018-11-14T05:42:16.112Z,37.60
2018-11-14T05:44:42.998Z,37.60
2018-11-14T05:47:10.112Z,37.50
2018-11-14T05:49:37.605Z,37.50
2018-11-14T05:52:04.437Z,37.50
2018-11-14T05:54:31.387Z,37.50
2018-11-14T05:56:58.227Z,37.40
2018-11-14T05:59:25.065Z,37.40
2018-11-14T06:01:51.888Z,37.40
2018-11-14T06:04:18.759Z,37.40
2018-11-14T06:06:45.595Z,38.00
2018-11-14T06:09:12.409Z,37.30
2018-11-14T06:11:39.229Z,37.20
2018-11-14T06:14:06.140Z,37.30
2018-11-14T06:16:32.980Z,37.20
2018-11-14T06:18:59.848Z,37.20
2018-11-14T06:21:26.625Z,37.20
2018-11-14T06:23:53.497Z,37.20
2018-11-14T06:26:20.350Z,37.10
2018-11-14T06:28:47.186Z,37.10
2018-11-14T06:31:14.005Z,37.10
2018-11-14T06:33:40.830Z,37.20
2018-11-14T06:36:07.715Z,37.00
2018-11-14T06:38:34.542Z,37.00
2018-11-14T06:41:01.367Z,37.00
2018-11-14T06:43:28.197Z,37.00
2018-11-14T06:45:55.031Z,37.00
2018-11-14T06:48:21.864Z,36.90
2018-11-14T06:50:48.697Z,37.00
2018-11-14T06:53:15.530Z,37.00
2018-11-14T06:55:42.464Z,36.90
2018-11-14T06:58:09.332Z,36.90
2018-11-14T07:00:36.163Z,36.90
2018-11-14T07:03:02.981Z,36.90
2018-11-14T07:05:29.866Z,36.80
2018-11-14T07:07:56.675Z,36.80
2018-11-14T07:10:23.522Z,36.80
2018-11-14T07:12:50.353Z,36.80
2018-11-14T07:15:17.206Z,36.80
2018-11-14T07:17:44.047Z,36.80
2018-11-14T07:20:11.343Z,36.80
2018-11-14T07:22:38.151Z,37.00
2018-11-14T07:25:05.273Z,37.00
2018-11-14T07:27:32.118Z,36.90
2018-11-14T07:29:58.976Z,36.80
2018-11-14T07:32:25.804Z,36.80
2018-11-14T07:34:52.763Z,36.90
2018-11-14T07:37:19.589Z,36.70
2018-11-14T07:39:46.442Z,36.80
2018-11-14T07:42:13.279Z,36.80
2018-11-14T07:44:40.708Z,36.70
2018-11-14T07:47:07.538Z,36.70
2018-11-14T07:49:34.363Z,36.70
2018-11-14T07:52:01.211Z,36.80
2018-11-14T07:54:28.172Z,36.70
2018-11-14T07:56:54.958Z,36.70
2018-11-14T07:59:21.806Z,36.70
2018-11-14T08:01:48.637Z,36.60
2018-11-14T08:04:15.497Z,36.80
2018-11-14T08:06:42.329Z,36.70
2018-11-14T08:09:09.183Z,36.70
2018-11-14T08:11:36.030Z,36.70
2018-11-14T08:14:02.877Z,36.70
2018-11-14T08:16:29.701Z,36.70
2018-11-14T08:18:56.642Z,36.70
2018-11-14T08:21:23.353Z,36.80
2018-11-14T08:23:50.244Z,36.80
2018-11-14T08:26:17.068Z,36.70
2018-11-14T08:28:43.899Z,36.80
2018-11-14T08:31:10.741Z,36.40
2018-11-14T08:33:37.552Z,36.70
2018-11-14T08:36:04.383Z,36.80
2018-11-14T08:38:31.228Z,37.40
2018-11-14T08:40:58.034Z,36.80
2018-11-14T08:43:24.881Z,36.80
2018-11-14T08:45:51.713Z,36.70
2018-11-14T08:48:18.554Z,36.70
2018-11-14T08:50:45.377Z,36.60
2018-11-14T08:53:12.198Z,36.60
2018-11-14T08:55:39.195Z,36.60
2018-11-14T08:58:06.150Z,36.70
2018-11-14T09:00:32.854Z,36.70
2018-11-14T09:02:59.680Z,36.80
2018-11-14T09:05:26.582Z,36.80
2018-11-14T09:07:53.451Z,36.80
2018-11-14T09:10:20.234Z,36.70
2018-11-14T09:12:47.108Z,36.80
2018-11-14T09:15:13.959Z,36.80
2018-11-14T09:17:40.860Z,36.80
2018-11-14T09:20:07.758Z,36.80
2018-11-14T09:22:34.666Z,36.90
2018-11-14T09:25:01.568Z,36.80
2018-11-14T09:27:28.355Z,36.70
2018-11-14T09:29:55.183Z,36.70
2018-11-14T09:32:22.701Z,36.90
2018-11-14T09:34:49.703Z,36.90
2018-11-14T09:37:16.529Z,36.90
2018-11-14T09:39:43.379Z,37.00
2018-11-14T09:42:10.234Z,37.00
2018-11-14T09:44:37.243Z,37.00
2018-11-14T09:47:03.953Z,37.10
2018-11-14T09:49:30.859Z,37.10
2018-11-14T09:51:57.602Z,37.20
2018-11-14T09:54:24.444Z,37.10
2018-11-14T09:56:51.306Z,37.20
2018-11-14T09:59:18.107Z,37.20
2018-11-14T10:01:44.979Z,37.20
2018-11-14T10:04:12.030Z,37.20
2018-11-14T10:06:38.932Z,37.20
2018-11-14T10:09:05.818Z,37.20
2018-11-14T10:11:32.670Z,37.30
2018-11-14T10:13:59.659Z,37.30
2018-11-14T10:16:26.432Z,37.30
2018-11-14T10:18:53.266Z,37.20
2018-11-14T10:21:20.206Z,37.20
2018-11-14T10:23:46.986Z,37.20
2018-11-14T10:26:13.814Z,37.20
2018-11-14T10:28:40.672Z,37.20
2018-11-14T10:31:07.788Z,37.20
2018-11-14T10:33:34.618Z,37.20
2018-11-14T10:36:01.457Z,37.30
2018-11-14T10:38:28.278Z,37.20
2018-11-14T10:40:55.121Z,37.30
2018-11-14T10:43:21.942Z,37.90
2018-11-14T10:45:48.967Z,37.20
2018-11-14T10:48:15.803Z,37.20
2018-11-14T10:50:42.662Z,37.20
2018-11-14T10:53:09.470Z,37.20
2018-11-14T10:55:36.472Z,37.20
2018-11-14T10:58:03.334Z,37.20
2018-11-14T11:00:30.166Z,37.20
2018-11-14T11:02:56.985Z,37.30
2018-11-14T11:05:23.921Z,37.30
2018-11-14T11:07:50.808Z,37.30
2018-11-14T11:10:17.582Z,37.30
2018-11-14T11:12:44.421Z,37.30
2018-11-14T11:15:11.289Z,37.40
2018-11-14T11:17:38.132Z,37.40
2018-11-14T11:20:05.065Z,37.40
2018-11-14T11:22:31.912Z,37.50
2018-11-14T11:24:59.070Z,37.40
2018-11-14T11:27:25.897Z,37.40
2018-11-14T11:29:52.725Z,37.30
2018-11-14T11:32:20.462Z,37.10
2018-11-14T11:34:47.602Z,37.30
2018-11-14T11:37:14.484Z,37.30
2018-11-14T11:39:41.288Z,37.40
2018-11-14T11:42:08.116Z,37.40
2018-11-14T11:44:35.354Z,37.50
2018-11-14T11:47:02.128Z,37.60
2018-11-14T11:49:28.942Z,37.70
2018-11-14T11:51:55.957Z,37.80
2018-11-14T11:54:22.615Z,37.90
2018-11-14T11:56:49.447Z,38.00
2018-11-14T11:59:16.278Z,37.90
2018-11-14T12:01:43.170Z,38.00
2018-11-14T12:04:10.301Z,38.10
2018-11-14T12:06:37.120Z,38.20
2018-11-14T12:09:03.952Z,38.20
2018-11-14T12:11:30.973Z,38.20
2018-11-14T12:13:58.230Z,38.60
2018-11-14T12:16:24.982Z,38.80
2018-11-14T12:18:51.914Z,38.90
2018-11-14T12:21:18.815Z,39.00
2018-11-14T12:23:45.875Z,39.70
2018-11-14T12:26:12.670Z,39.10
2018-11-14T12:28:39.512Z,39.60
2018-11-14T12:31:06.717Z,38.90
2018-11-14T12:33:33.409Z,39.00
2018-11-14T12:36:00.229Z,39.00
2018-11-14T12:38:27.050Z,39.10
2018-11-14T12:40:53.876Z,39.00
2018-11-14T12:43:20.752Z,39.10
2018-11-14T12:45:47.594Z,39.00
2018-11-14T12:48:14.414Z,39.10
2018-11-14T12:50:41.335Z,39.10
2018-11-14T12:53:08.147Z,39.10
2018-11-14T12:55:35.139Z,39.10
2018-11-14T12:58:02.025Z,39.30
2018-11-14T13:00:28.844Z,39.20
2018-11-14T13:02:55.701Z,39.20
2018-11-14T13:05:22.704Z,39.10
2018-11-14T13:07:49.542Z,39.40
2018-11-14T13:10:16.432Z,39.10
2018-11-14T13:12:43.314Z,39.20
2018-11-14T13:15:10.298Z,39.40
2018-11-14T13:17:37.184Z,39.30
2018-11-14T13:20:04.071Z,39.20
2018-11-14T13:22:30.880Z,39.30
2018-11-14T13:24:57.883Z,39.30
2018-11-14T13:27:24.961Z,39.40
2018-11-14T13:29:51.777Z,39.40
2018-11-14T13:32:19.494Z,39.30
2018-11-14T13:34:46.509Z,39.40
2018-11-14T13:37:13.357Z,39.30
2018-11-14T13:39:40.182Z,39.30
2018-11-14T13:42:07.038Z,39.40
2018-11-14T13:44:34.050Z,39.50
2018-11-14T13:47:00.891Z,39.30
2018-11-14T13:49:27.856Z,39.30
2018-11-14T13:51:54.645Z,39.30
2018-11-14T13:54:21.650Z,39.20
2018-11-14T13:56:48.520Z,39.10
2018-11-14T13:59:15.338Z,39.10
2018-11-14T14:01:42.168Z,38.30
2018-11-14T14:04:09.182Z,39.00
2018-11-14T14:06:36.019Z,38.40
2018-11-14T14:09:02.854Z,38.50
2018-11-14T14:11:29.777Z,38.50
2018-11-14T14:13:56.807Z,38.50
2018-11-14T14:16:23.676Z,38.60
2018-11-14T14:18:50.447Z,38.60
2018-11-14T14:21:17.293Z,38.60
2018-11-14T14:23:44.138Z,38.60
2018-11-14T14:26:10.974Z,38.70
2018-11-14T14:28:37.802Z,38.70
2018-11-14T14:31:04.632Z,38.70
2018-11-14T14:33:31.459Z,38.80
2018-11-14T14:35:58.302Z,38.70
2018-11-14T14:38:25.138Z,38.70
2018-11-14T14:40:52.141Z,38.70
2018-11-14T14:43:18.974Z,38.80
2018-11-14T14:45:46.177Z,38.80
2018-11-14T14:48:13.164Z,38.80
2018-11-14T14:50:40.036Z,38.70
2018-11-14T14:53:06.858Z,38.70
2018-11-14T14:55:33.708Z,38.80
2018-11-14T14:58:00.545Z,38.80
2018-11-14T15:00:27.368Z,38.80
2018-11-14T15:02:54.227Z,39.10
2018-11-14T15:05:21.110Z,39.00
2018-11-14T15:07:47.918Z,38.90
2018-11-14T15:10:14.770Z,38.90
2018-11-14T15:12:41.588Z,38.90
2018-11-14T15:15:08.456Z,38.90
2018-11-14T15:17:35.305Z,38.90
2018-11-14T15:20:02.159Z,38.90
2018-11-14T15:22:29.003Z,38.90
2018-11-14T15:24:56.002Z,38.90
2018-11-14T15:27:22.880Z,38.90
2018-11-14T15:29:49.740Z,38.90
2018-11-14T15:32:17.204Z,38.90
2018-11-14T15:34:44.489Z,38.90
2018-11-14T15:37:11.512Z,39.00
2018-11-14T15:39:38.326Z,39.00
2018-11-14T15:42:05.293Z,39.00
2018-11-14T15:44:32.221Z,39.00
2018-11-14T15:46:59.085Z,39.00
2018-11-14T15:49:25.914Z,39.00
2018-11-14T15:51:53.124Z,39.00
2018-11-14T15:54:20.005Z,39.10
2018-11-14T15:56:47.877Z,39.00
2018-11-14T15:59:14.710Z,39.00
2018-11-14T16:01:41.535Z,39.00
2018-11-14T16:04:08.380Z,39.00
2018-11-14T16:06:35.211Z,39.00
2018-11-14T16:09:02.042Z,39.00
2018-11-14T16:11:28.867Z,39.00
2018-11-14T16:13:55.746Z,38.90
2018-11-14T16:16:22.574Z,39.00
2018-11-14T16:18:49.404Z,39.10
2018-11-14T16:21:16.234Z,39.10
2018-11-14T16:23:43.113Z,39.10
2018-11-14T16:26:09.956Z,39.00
2018-11-14T16:28:36.790Z,38.90
2018-11-14T16:31:03.631Z,38.90
2018-11-14T16:33:30.456Z,38.90
2018-11-14T16:35:57.277Z,38.90
2018-11-14T16:38:24.109Z,38.90
2018-11-14T16:40:50.935Z,38.90
2018-11-14T16:43:17.902Z,38.90
2018-11-14T16:45:44.692Z,38.90
2018-11-14T16:48:11.530Z,38.90
2018-11-14T16:50:38.364Z,38.80
2018-11-14T16:53:05.190Z,38.80
2018-11-14T16:55:32.130Z,38.80
2018-11-14T16:57:58.926Z,38.80
2018-11-14T17:00:25.741Z,38.80
2018-11-14T17:02:52.578Z,38.90
2018-11-14T17:05:19.968Z,38.90
2018-11-14T17:07:46.787Z,38.80
2018-11-14T17:10:13.614Z,39.20
2018-11-14T17:12:40.480Z,38.70
2018-11-14T17:15:07.690Z,38.70
2018-11-14T17:17:34.499Z,38.60
2018-11-14T17:20:01.305Z,38.60
2018-11-14T17:22:28.161Z,38.70
2018-11-14T17:24:55.036Z,38.70
2018-11-14T17:27:21.847Z,38.80
2018-11-14T17:29:48.671Z,38.80
2018-11-14T17:32:16.129Z,38.80
2018-11-14T17:34:43.003Z,38.90
2018-11-14T17:37:09.827Z,39.00
2018-11-14T17:39:36.671Z,39.00
2018-11-14T17:42:03.637Z,39.00
2018-11-14T17:44:30.369Z,39.00
2018-11-14T17:46:57.191Z,39.10
2018-11-14T17:49:24.012Z,39.10
2018-11-14T17:51:50.840Z,39.10
2018-11-14T17:54:17.752Z,39.10
2018-11-14T17:56:44.594Z,39.10
2018-11-14T17:59:11.418Z,39.00
2018-11-14T18:01:38.249Z,39.00
2018-11-14T18:04:05.116Z,39.00
2018-11-14T18:06:31.952Z,39.00
2018-11-14T18:08:58.816Z,39.00
2018-11-14T18:11:25.665Z,39.00
2018-11-14T18:13:52.701Z,39.00
2018-11-14T18:16:19.513Z,38.90
2018-11-14T18:18:46.325Z,38.80
2018-11-14T18:21:13.158Z,38.90
2018-11-14T18:23:39.989Z,38.80
2018-11-14T18:26:06.940Z,38.80
2018-11-14T18:28:33.751Z,38.80
2018-11-14T18:31:00.674Z,38.80
2018-11-14T18:33:27.514Z,38.80
2018-11-14T18:35:54.345Z,38.80
2018-11-14T18:38:21.176Z,38.80
2018-11-14T18:40:48.026Z,39.00
2018-11-14T18:43:15.007Z,39.00
2018-11-14T18:45:43.364Z,39.00
2018-11-14T18:48:10.302Z,39.00
2018-11-14T18:50:37.551Z,39.10
2018-11-14T18:53:04.403Z,39.20
2018-11-14T18:55:32.338Z,39.80
2018-11-14T18:57:59.818Z,40.00
2018-11-14T19:00:26.865Z,39.90
2018-11-14T19:02:53.822Z,39.80
2018-11-14T19:05:21.146Z,39.90
2018-11-14T19:07:48.051Z,39.60
2018-11-14T19:10:14.881Z,39.60
2018-11-14T19:12:41.730Z,40.20
2018-11-14T19:15:11.089Z,39.50
2018-11-14T19:17:38.008Z,39.50
2018-11-14T19:20:04.829Z,39.50
2018-11-14T19:22:31.691Z,39.40
2018-11-14T19:24:58.526Z,39.40
2018-11-14T19:27:25.362Z,39.40
2018-11-14T19:29:52.174Z,39.40
2018-11-14T19:32:19.467Z,39.30
2018-11-14T19:34:46.300Z,39.30
2018-11-14T19:37:13.130Z,39.30
2018-11-14T19:39:39.967Z,39.20
2018-11-14T19:42:06.785Z,39.20
2018-11-14T19:44:33.654Z,39.10
2018-11-14T19:47:00.545Z,39.30
2018-11-14T19:49:27.395Z,39.30
2018-11-14T19:51:54.201Z,39.20
2018-11-14T19:54:21.042Z,39.30
2018-11-14T19:56:47.881Z,39.30
2018-11-14T19:59:14.743Z,39.20
2018-11-14T20:01:41.546Z,39.10
2018-11-14T20:04:08.401Z,39.20
2018-11-14T20:06:35.266Z,39.10
2018-11-14T20:09:02.102Z,39.00
2018-11-14T20:11:28.932Z,39.00
2018-11-14T20:13:55.776Z,39.10
2018-11-14T20:16:22.598Z,39.00
2018-11-14T20:18:49.449Z,38.90
2018-11-14T20:21:16.295Z,38.90
2018-11-14T20:23:43.110Z,38.90
2018-11-14T20:26:10.091Z,38.90
2018-11-14T20:28:36.934Z,38.90
2018-11-14T20:31:03.769Z,39.00
2018-11-14T20:33:30.630Z,39.00
2018-11-14T20:35:57.472Z,38.90
2018-11-14T20:38:24.299Z,38.90
2018-11-14T20:40:51.127Z,38.80
2018-11-14T20:43:17.997Z,38.80
2018-11-14T20:45:44.936Z,38.80
2018-11-14T20:48:11.761Z,38.90
2018-11-14T20:50:38.621Z,38.80
2018-11-14T20:53:05.446Z,38.80
2018-11-14T20:55:32.332Z,38.80
2018-11-14T20:57:59.164Z,38.80
2018-11-14T21:00:25.981Z,38.80
2018-11-14T21:02:52.823Z,38.80
2018-11-14T21:05:19.688Z,38.80
2018-11-14T21:07:46.531Z,38.80
2018-11-14T21:10:13.358Z,38.80
2018-11-14T21:12:40.228Z,38.90
2018-11-14T21:15:07.110Z,38.80
2018-11-14T21:17:33.914Z,38.70
2018-11-14T21:20:00.745Z,38.70
2018-11-14T21:22:27.578Z,39.30
2018-11-14T21:24:54.447Z,38.70
2018-11-14T21:27:21.301Z,38.70
2018-11-14T21:29:48.299Z,38.70
2018-11-14T21:32:15.002Z,38.70
2018-11-14T21:34:42.004Z,38.60
2018-11-14T21:37:08.845Z,38.50
2018-11-14T21:39:35.891Z,38.50
2018-11-14T21:42:02.727Z,38.40
2018-11-14T21:44:29.593Z,38.40
2018-11-14T21:46:56.397Z,38.50
2018-11-14T21:49:23.234Z,38.60
2018-11-14T21:51:50.097Z,38.50
2018-11-14T21:54:17.923Z,38.40
2018-11-14T21:56:44.739Z,38.40
2018-11-14T21:59:11.583Z,38.40
2018-11-14T22:01:38.408Z,38.40
2018-11-14T22:04:05.350Z,38.30
2018-11-14T22:06:32.181Z,38.20
2018-11-14T22:08:59.016Z,38.20
2018-11-14T22:11:25.899Z,38.20
2018-11-14T22:13:52.928Z,38.10
2018-11-14T22:16:19.806Z,38.20
2018-11-14T22:18:46.632Z,38.20
2018-11-14T22:21:13.568Z,38.10
2018-11-14T22:23:40.283Z,38.10
2018-11-14T22:26:07.120Z,38.10
2018-11-14T22:28:33.985Z,38.10
2018-11-14T22:31:00.845Z,38.10
2018-11-14T22:33:27.668Z,38.10
2018-11-14T22:35:54.508Z,38.10
2018-11-14T22:38:21.369Z,38.00
2018-11-14T22:40:49.439Z,37.90
2018-11-14T22:43:16.272Z,37.90
2018-11-14T22:45:43.493Z,37.90
2018-11-14T22:48:10.320Z,37.90
2018-11-14T22:50:37.149Z,37.90
2018-11-14T22:53:04.024Z,37.80
2018-11-14T22:55:31.056Z,37.80
2018-11-14T22:57:57.957Z,37.80
2018-11-14T23:00:24.781Z,37.80
2018-11-14T23:02:52.491Z,37.80
2018-11-14T23:05:19.553Z,37.80
2018-11-14T23:07:46.429Z,37.70
2018-11-14T23:10:13.249Z,37.70
2018-11-14T23:12:40.067Z,37.70
2018-11-14T23:15:07.065Z,37.60
2018-11-14T23:17:33.902Z,37.60
2018-11-14T23:20:00.714Z,37.60
2018-11-14T23:22:27.556Z,37.50
2018-11-14T23:24:54.463Z,37.60
2018-11-14T23:27:21.315Z,37.50
2018-11-14T23:29:48.136Z,37.60
2018-11-14T23:32:14.960Z,37.50
2018-11-14T23:34:41.817Z,37.50
2018-11-14T23:37:08.650Z,37.50
2018-11-14T23:39:35.468Z,37.40
2018-11-14T23:42:02.539Z,37.40
2018-11-14T23:44:29.382Z,37.30
2018-11-14T23:46:56.207Z,37.40
2018-11-14T23:49:23.062Z,37.40
2018-11-14T23:51:50.212Z,37.40
2018-11-14T23:54:17.182Z,37.30
2018-11-14T23:56:44.368Z,37.30
2018-11-14T23:59:11.180Z,37.30
